createdAt,value
2018-07-02T00:01:13.060Z,16.86
2018-07-02T00:03:43.483Z,16.85
2018-07-02T00:06:41.563Z,16.81
2018-07-02T00:09:12.033Z,16.78
2018-07-02T00:11:42.480Z,16.78
2018-07-02T00:14:12.994Z,16.65
2018-07-02T00:16:43.511Z,16.50
2018-07-02T00:19:13.939Z,16.46
2018-07-02T00:21:44.161Z,16.43
2018-07-02T00:24:14.980Z,16.37
2018-07-02T00:26:45.446Z,16.32
2018-07-02T00:29:15.800Z,16.29
2018-07-02T00:31:46.131Z,16.36
2018-07-02T00:34:16.435Z,16.37
2018-07-02T00:36:47.066Z,16.40
2018-07-02T00:39:17.731Z,16.25
2018-07-02T00:41:48.224Z,16.10
2018-07-02T00:44:18.719Z,16.04
2018-07-02T00:46:49.319Z,16.04
2018-07-02T00:49:19.954Z,16.06
2018-07-02T00:51:50.491Z,16.09
2018-07-02T00:54:21.009Z,16.09
2018-07-02T00:56:51.383Z,16.09
2018-07-02T00:59:22.208Z,16.09
2018-07-02T01:02:11.739Z,16.10
2018-07-02T01:04:42.187Z,16.08
2018-07-02T01:07:12.745Z,16.01
2018-07-02T01:09:43.298Z,16.00
2018-07-02T01:12:13.393Z,16.00
2018-07-02T01:14:44.055Z,15.99
2018-07-02T01:17:14.523Z,15.90
2018-07-02T01:19:44.952Z,15.86
2018-07-02T01:22:15.387Z,15.78
2018-07-02T01:24:45.754Z,15.69
2018-07-02T01:27:16.127Z,15.66
2018-07-02T01:29:46.788Z,15.56
2018-07-02T01:32:17.223Z,15.49
2018-07-02T01:34:47.767Z,15.45
2018-07-02T01:37:18.341Z,15.35
2018-07-02T01:39:48.536Z,15.39
2018-07-02T01:42:19.183Z,15.42
2018-07-02T01:44:49.492Z,15.40
2018-07-02T01:47:20.132Z,15.32
2018-07-02T01:49:50.508Z,15.27
2018-07-02T01:52:20.947Z,15.36
2018-07-02T01:54:51.407Z,15.32
2018-07-02T01:57:21.790Z,15.27
2018-07-02T01:59:52.395Z,15.27
2018-07-02T02:02:22.758Z,15.36
2018-07-02T02:04:53.452Z,15.37
2018-07-02T02:07:24.079Z,15.35
2018-07-02T02:09:54.373Z,15.38
2018-07-02T02:12:24.872Z,15.38
2018-07-02T02:14:55.303Z,15.31
2018-07-02T02:17:25.956Z,15.20
2018-07-02T02:19:56.503Z,15.16
2018-07-02T02:22:26.883Z,15.19
2018-07-02T02:25:20.946Z,15.19
2018-07-02T02:27:51.574Z,15.22
2018-07-02T02:30:22.007Z,15.17
2018-07-02T02:32:52.474Z,15.09
2018-07-02T02:35:23.128Z,15.05
2018-07-02T02:37:53.660Z,15.08
2018-07-02T02:40:24.303Z,15.16
2018-07-02T02:42:54.927Z,15.23
2018-07-02T02:45:25.526Z,15.13
2018-07-02T02:47:56.216Z,14.92
2018-07-02T02:50:26.760Z,14.75
2018-07-02T02:52:57.173Z,14.65
2018-07-02T02:55:27.796Z,14.72
2018-07-02T02:57:58.020Z,14.73
2018-07-02T03:00:28.054Z,14.66
2018-07-02T03:02:58.565Z,14.60
2018-07-02T03:05:28.959Z,14.53
2018-07-02T03:07:59.478Z,14.48
2018-07-02T03:10:30.069Z,14.52
2018-07-02T03:13:01.671Z,14.49
2018-07-02T03:15:32.043Z,14.43
2018-07-02T03:18:02.657Z,14.38
2018-07-02T03:20:33.016Z,14.35
2018-07-02T03:23:03.585Z,14.40
2018-07-02T03:25:34.149Z,14.44
2018-07-02T03:28:04.607Z,14.53
2018-07-02T03:30:35.144Z,14.48
2018-07-02T03:33:05.705Z,14.40
2018-07-02T03:35:36.095Z,14.35
2018-07-02T03:38:06.658Z,14.29
2018-07-02T03:40:37.256Z,14.26
2018-07-02T03:43:07.822Z,14.31
2018-07-02T03:45:38.316Z,14.31
2018-07-02T03:48:08.694Z,14.46
2018-07-02T03:50:39.259Z,14.71
2018-07-02T03:53:09.843Z,14.81
2018-07-02T03:55:40.400Z,14.89
2018-07-02T03:58:11.045Z,14.98
2018-07-02T04:00:42.571Z,15.23
2018-07-02T04:03:13.248Z,15.36
2018-07-02T04:05:43.738Z,15.40
2018-07-02T04:08:14.287Z,15.27
2018-07-02T04:10:45.728Z,15.23
2018-07-02T04:13:16.508Z,15.17
2018-07-02T04:15:46.982Z,15.21
2018-07-02T04:18:17.478Z,15.27
2018-07-02T04:21:17.484Z,15.30
2018-07-02T04:23:48.019Z,15.37
2018-07-02T04:26:18.680Z,15.46
2018-07-02T04:28:49.107Z,15.53
2018-07-02T04:31:19.666Z,15.68
2018-07-02T04:33:50.135Z,15.82
2018-07-02T04:36:20.552Z,15.98
2018-07-02T04:38:51.221Z,16.10
2018-07-02T04:41:21.641Z,16.28
2018-07-02T04:43:52.316Z,16.46
2018-07-02T04:46:22.831Z,16.71
2018-07-02T04:48:53.681Z,16.78
2018-07-02T04:51:24.315Z,17.01
2018-07-02T04:53:54.947Z,17.22
2018-07-02T04:56:25.563Z,17.35
2018-07-02T04:58:56.063Z,17.40
2018-07-02T05:01:26.432Z,17.26
2018-07-02T05:03:56.853Z,17.57
2018-07-02T05:06:27.235Z,17.55
2018-07-02T05:08:57.719Z,17.79
2018-07-02T05:11:28.214Z,18.13
2018-07-02T05:13:59.146Z,18.40
2018-07-02T05:16:29.804Z,19.03
2018-07-02T05:19:00.378Z,19.29
2018-07-02T05:21:30.743Z,19.51
2018-07-02T05:24:01.232Z,19.67
2018-07-02T05:26:31.685Z,19.93
2018-07-02T05:29:02.121Z,19.84
2018-07-02T05:31:32.575Z,19.48
2018-07-02T05:34:07.017Z,19.36
2018-07-02T05:36:37.682Z,19.56
2018-07-02T05:39:11.260Z,20.87
2018-07-02T05:41:41.698Z,21.21
2018-07-02T05:44:12.455Z,21.09
2018-07-02T05:46:42.941Z,22.38
2018-07-02T05:49:12.915Z,21.41
2018-07-02T05:51:43.340Z,22.59
2018-07-02T05:54:13.758Z,23.62
2018-07-02T05:56:44.436Z,23.87
2018-07-02T05:59:14.952Z,24.13
2018-07-02T06:01:45.412Z,24.38
2018-07-02T06:04:16.043Z,24.95
2018-07-02T06:06:46.722Z,25.89
2018-07-02T06:09:17.110Z,24.39
2018-07-02T06:11:54.515Z,25.32
2018-07-02T06:14:28.044Z,25.82
2018-07-02T06:16:58.607Z,24.46
2018-07-02T06:19:41.632Z,25.31
2018-07-02T06:22:12.078Z,26.53
2018-07-02T06:24:42.472Z,25.19
2018-07-02T06:27:12.995Z,25.89
2018-07-02T06:29:43.543Z,25.80
2018-07-02T06:32:13.924Z,26.01
2018-07-02T06:34:44.343Z,25.92
2018-07-02T06:37:14.784Z,26.55
2018-07-02T06:39:45.143Z,27.15
2018-07-02T06:42:15.625Z,27.86
2018-07-02T06:44:46.224Z,26.27
2018-07-02T06:47:16.542Z,27.23
2018-07-02T06:49:46.952Z,27.51
2018-07-02T06:52:17.422Z,28.06
2018-07-02T06:54:47.734Z,26.39
2018-07-02T06:57:18.096Z,27.80
2018-07-02T06:59:48.445Z,27.90
2018-07-02T07:02:18.744Z,28.54
2018-07-02T07:04:49.119Z,29.71
2018-07-02T07:07:19.575Z,28.12
2018-07-02T07:09:49.902Z,29.55
2018-07-02T07:12:20.554Z,29.95
2018-07-02T07:14:50.943Z,30.81
2018-07-02T07:17:21.243Z,27.93
2018-07-02T07:19:51.519Z,28.02
2018-07-02T07:22:21.922Z,29.98
2018-07-02T07:24:52.231Z,31.27
2018-07-02T07:27:22.589Z,28.70
2018-07-02T07:29:53.224Z,28.73
2018-07-02T07:32:23.618Z,26.51
2018-07-02T07:34:54.140Z,26.48
2018-07-02T07:37:24.614Z,26.80
2018-07-02T07:39:55.173Z,28.78
2018-07-02T07:42:25.512Z,28.19
2018-07-02T07:44:56.029Z,27.23
2018-07-02T07:47:26.378Z,27.99
2018-07-02T07:49:56.832Z,27.06
2018-07-02T07:52:27.155Z,27.97
2018-07-02T07:54:57.665Z,28.23
2018-07-02T07:57:30.234Z,27.02
2018-07-02T08:00:00.704Z,29.75
2018-07-02T08:02:31.186Z,31.57
2018-07-02T08:05:01.479Z,32.26
2018-07-02T08:07:32.004Z,29.14
2018-07-02T08:10:02.547Z,30.33
2018-07-02T08:12:32.920Z,31.24
2018-07-02T08:15:03.399Z,29.77
2018-07-02T08:17:34.875Z,31.66
2018-07-02T08:20:05.931Z,32.64
2018-07-02T08:22:36.208Z,33.32
2018-07-02T08:25:06.799Z,31.46
2018-07-02T08:27:36.945Z,30.63
2018-07-02T08:30:08.736Z,31.89
2018-07-02T08:32:39.287Z,30.70
2018-07-02T08:35:09.695Z,32.56
2018-07-02T08:37:40.310Z,32.30
2018-07-02T08:40:10.649Z,32.26
2018-07-02T08:42:41.138Z,33.25
2018-07-02T08:45:11.131Z,32.19
2018-07-02T08:47:41.499Z,31.74
2018-07-02T08:50:11.863Z,31.65
2018-07-02T08:52:42.394Z,29.45
2018-07-02T08:55:12.789Z,30.54
2018-07-02T08:57:43.091Z,31.37
2018-07-02T09:00:13.550Z,29.72
2018-07-02T09:02:43.955Z,30.08
2018-07-02T09:05:14.335Z,31.71
2018-07-02T09:07:44.712Z,33.36
2018-07-02T09:10:15.105Z,33.99
2018-07-02T09:12:45.636Z,32.93
2018-07-02T09:15:16.040Z,31.92
2018-07-02T09:17:46.416Z,32.65
2018-07-02T09:20:16.702Z,34.26
2018-07-02T09:22:47.190Z,33.33
2018-07-02T09:25:17.519Z,33.82
2018-07-02T09:27:47.919Z,31.36
2018-07-02T09:30:18.367Z,29.75
2018-07-02T09:32:48.735Z,31.43
2018-07-02T09:35:19.075Z,28.84
2018-07-02T09:37:49.462Z,29.63
2018-07-02T09:40:19.903Z,33.54
2018-07-02T09:42:50.355Z,33.67
2018-07-02T09:45:20.777Z,32.81
2018-07-02T09:47:51.175Z,33.15
2018-07-02T09:50:21.776Z,33.88
2018-07-02T09:52:51.741Z,33.95
2018-07-02T09:55:22.088Z,34.50
2018-07-02T09:57:52.729Z,34.99
2018-07-02T10:00:36.925Z,35.06
2018-07-02T10:03:09.691Z,32.74
2018-07-02T10:05:40.328Z,33.62
2018-07-02T10:08:10.714Z,32.27
2018-07-02T10:10:41.082Z,33.26
2018-07-02T10:13:11.531Z,34.84
2018-07-02T10:15:42.071Z,35.93
2018-07-02T10:18:12.439Z,35.80
2018-07-02T10:20:42.827Z,34.68
2018-07-02T10:23:13.297Z,35.21
2018-07-02T10:25:43.784Z,36.34
2018-07-02T10:28:14.354Z,35.81
2018-07-02T10:30:44.724Z,34.47
2018-07-02T10:33:15.119Z,33.04
2018-07-02T10:35:45.438Z,34.27
2018-07-02T10:38:15.951Z,34.23
2018-07-02T10:40:46.367Z,34.27
2018-07-02T10:43:16.758Z,36.05
2018-07-02T10:45:47.178Z,33.98
2018-07-02T10:48:23.361Z,36.56
2018-07-02T10:50:54.129Z,33.53
2018-07-02T10:53:24.675Z,34.01
2018-07-02T10:55:55.019Z,35.30
2018-07-02T10:58:25.581Z,36.80
2018-07-02T11:00:55.916Z,32.87
2018-07-02T11:03:26.434Z,33.41
2018-07-02T11:05:56.759Z,33.89
2018-07-02T11:08:27.368Z,35.33
2018-07-02T11:10:57.826Z,32.93
2018-07-02T11:13:28.262Z,33.68
2018-07-02T11:15:58.641Z,32.91
2018-07-02T11:18:28.863Z,36.58
2018-07-02T11:20:59.323Z,34.31
2018-07-02T11:23:35.083Z,36.28
2018-07-02T11:26:05.628Z,37.49
2018-07-02T11:28:36.096Z,35.70
2018-07-02T11:31:06.305Z,36.33
2018-07-02T11:33:36.699Z,33.54
2018-07-02T11:36:07.224Z,34.93
2018-07-02T11:38:37.521Z,36.56
2018-07-02T11:41:07.892Z,34.93
2018-07-02T11:43:38.253Z,34.64
2018-07-02T11:46:08.702Z,37.36
2018-07-02T11:48:38.992Z,37.60
2018-07-02T11:51:09.298Z,36.29
2018-07-02T11:53:39.567Z,35.79
2018-07-02T11:56:09.963Z,38.08
2018-07-02T11:58:40.424Z,38.23
2018-07-02T12:01:10.715Z,39.91
2018-07-02T12:03:41.102Z,39.06
2018-07-02T12:06:15.303Z,40.22
2018-07-02T12:08:45.661Z,40.53
2018-07-02T12:11:15.939Z,37.31
2018-07-02T12:13:46.375Z,36.28
2018-07-02T12:16:16.856Z,36.87
2018-07-02T12:18:47.353Z,36.53
2018-07-02T12:21:17.734Z,37.95
2018-07-02T12:23:48.108Z,36.64
2018-07-02T12:26:18.497Z,37.02
2018-07-02T12:28:48.927Z,40.25
2018-07-02T12:31:19.410Z,40.68
2018-07-02T12:33:49.961Z,41.31
2018-07-02T12:36:20.710Z,36.07
2018-07-02T12:38:51.199Z,39.00
2018-07-02T12:41:21.475Z,38.07
2018-07-02T12:43:51.951Z,36.99
2018-07-02T12:46:22.497Z,39.74
2018-07-02T12:48:52.731Z,42.19
2018-07-02T12:51:23.167Z,42.70
2018-07-02T12:53:53.673Z,40.25
2018-07-02T12:56:24.927Z,42.21
2018-07-02T12:58:55.653Z,43.26
2018-07-02T13:01:26.103Z,41.91
2018-07-02T13:03:56.543Z,43.19
2018-07-02T13:06:26.752Z,43.56
2018-07-02T13:08:57.137Z,40.58
2018-07-02T13:11:27.454Z,39.27
2018-07-02T13:13:57.901Z,39.59
2018-07-02T13:16:28.430Z,38.18
2018-07-02T13:18:58.735Z,36.60
2018-07-02T13:21:29.161Z,38.53
2018-07-02T13:23:59.429Z,39.09
2018-07-02T13:26:30.049Z,39.81
2018-07-02T13:29:00.319Z,41.55
2018-07-02T13:31:30.978Z,41.74
2018-07-02T13:34:01.295Z,40.46
2018-07-02T13:36:31.559Z,38.73
2018-07-02T13:39:01.999Z,36.82
2018-07-02T13:41:32.555Z,37.62
2018-07-02T13:44:02.849Z,37.79
2018-07-02T13:46:33.337Z,38.37
2018-07-02T13:49:03.733Z,38.94
2018-07-02T13:51:34.123Z,40.39
2018-07-02T13:54:04.502Z,42.65
2018-07-02T13:56:35.380Z,41.35
2018-07-02T13:59:05.338Z,40.13
2018-07-02T14:01:35.628Z,42.42
2018-07-02T14:04:06.124Z,42.84
2018-07-02T14:06:36.427Z,43.62
2018-07-02T14:09:10.785Z,40.61
2018-07-02T14:11:42.043Z,41.27
2018-07-02T14:14:12.505Z,38.08
2018-07-02T14:16:42.800Z,35.69
2018-07-02T14:19:13.285Z,33.81
2018-07-02T14:21:43.859Z,33.24
2018-07-02T14:24:14.485Z,34.05
2018-07-02T14:26:44.874Z,33.60
2018-07-02T14:29:15.276Z,34.86
2018-07-02T14:31:45.763Z,38.24
2018-07-02T14:34:15.982Z,37.78
2018-07-02T14:36:45.863Z,39.35
2018-07-02T14:39:16.480Z,39.45
2018-07-02T14:41:47.160Z,40.83
2018-07-02T14:44:17.449Z,39.91
2018-07-02T14:46:47.701Z,38.96
2018-07-02T14:49:18.185Z,37.75
2018-07-02T14:51:48.644Z,37.23
2018-07-02T14:54:18.593Z,40.15
2018-07-02T14:56:51.776Z,44.01
2018-07-02T14:59:22.805Z,45.41
2018-07-02T15:01:53.250Z,42.56
2018-07-02T15:04:23.847Z,41.39
2018-07-02T15:06:54.472Z,41.13
2018-07-02T15:09:25.107Z,41.98
2018-07-02T15:11:56.198Z,43.55
2018-07-02T15:14:26.856Z,44.78
2018-07-02T15:16:57.390Z,44.57
2018-07-02T15:19:28.241Z,45.23
2018-07-02T15:21:59.203Z,45.63
2018-07-02T15:24:30.113Z,45.67
2018-07-02T15:27:00.664Z,44.90
2018-07-02T15:29:31.417Z,44.53
2018-07-02T15:32:02.145Z,43.90
2018-07-02T15:34:32.701Z,43.23
2018-07-02T15:37:03.346Z,43.69
2018-07-02T15:39:33.805Z,44.59
2018-07-02T15:42:06.008Z,43.73
2018-07-02T15:44:36.433Z,41.96
2018-07-02T15:47:07.121Z,42.25
2018-07-02T15:49:37.735Z,42.86
2018-07-02T15:52:09.050Z,43.43
2018-07-02T15:54:39.788Z,43.46
2018-07-02T15:57:22.563Z,42.13
2018-07-02T15:59:53.059Z,42.70
2018-07-02T16:02:23.998Z,41.04
2018-07-02T16:04:54.294Z,41.15
2018-07-02T16:07:28.640Z,42.00
2018-07-02T16:09:59.003Z,42.93
2018-07-02T16:12:29.481Z,42.09
2018-07-02T16:14:59.869Z,40.83
2018-07-02T16:17:30.345Z,41.78
2018-07-02T16:20:01.250Z,41.33
2018-07-02T16:22:31.573Z,41.93
2018-07-02T16:25:02.152Z,41.92
2018-07-02T16:27:32.854Z,41.51
2018-07-02T16:30:03.358Z,42.37
2018-07-02T16:32:33.628Z,42.60
2018-07-02T16:35:07.267Z,41.10
2018-07-02T16:37:37.596Z,41.20
2018-07-02T16:40:08.266Z,39.10
2018-07-02T16:42:38.847Z,40.12
2018-07-02T16:45:09.074Z,40.32
2018-07-02T16:47:39.542Z,40.57
2018-07-02T16:50:09.915Z,40.18
2018-07-02T16:52:40.539Z,38.61
2018-07-02T16:55:11.034Z,37.61
2018-07-02T17:00:53.061Z,37.38
2018-07-02T17:03:23.520Z,37.00
2018-07-02T17:05:54.150Z,36.92
2018-07-02T17:08:37.853Z,36.64
2018-07-02T17:11:08.269Z,36.42
2018-07-02T17:13:38.713Z,35.98
2018-07-02T17:16:09.107Z,36.25
2018-07-02T17:18:39.609Z,36.96
2018-07-02T17:21:10.132Z,36.68
2018-07-02T17:23:40.985Z,36.25
2018-07-02T17:26:11.992Z,34.70
2018-07-02T17:28:42.996Z,31.92
2018-07-02T17:31:14.019Z,31.68
2018-07-02T17:33:45.040Z,32.97
2018-07-02T17:36:16.049Z,32.62
2018-07-02T17:38:47.062Z,33.04
2018-07-02T17:41:17.755Z,33.84
2018-07-02T17:43:48.411Z,33.70
2018-07-02T17:46:19.613Z,33.48
2018-07-02T17:48:50.371Z,33.91
2018-07-02T17:51:21.244Z,34.64
2018-07-02T17:53:52.320Z,33.56
2018-07-02T17:56:28.159Z,33.05
2018-07-02T17:58:58.868Z,32.24
2018-07-02T18:01:29.852Z,31.87
2018-07-02T18:04:00.880Z,31.62
2018-07-02T18:06:31.945Z,31.64
2018-07-02T18:09:03.189Z,31.26
2018-07-02T18:11:38.785Z,31.66
2018-07-02T18:14:11.273Z,31.04
2018-07-02T18:16:42.323Z,30.40
2018-07-02T18:19:14.011Z,30.35
2018-07-02T18:21:44.600Z,30.81
2018-07-02T18:24:15.269Z,30.68
2018-07-02T18:26:45.918Z,30.63
2018-07-02T18:29:17.813Z,30.24
2018-07-02T18:31:49.116Z,30.51
2018-07-02T18:34:30.047Z,30.18
2018-07-02T18:37:15.299Z,29.65
2018-07-02T18:39:45.666Z,29.01
2018-07-02T18:42:15.790Z,28.71
2018-07-02T18:44:46.063Z,28.41
2018-07-02T18:47:16.349Z,27.84
2018-07-02T18:49:46.651Z,27.48
2018-07-02T18:52:16.788Z,27.26
2018-07-02T18:54:47.132Z,26.98
2018-07-02T18:57:17.277Z,26.83
2018-07-02T18:59:47.592Z,26.67
2018-07-02T19:02:17.814Z,26.54
2018-07-02T19:04:48.288Z,26.38
2018-07-02T19:07:18.694Z,26.31
2018-07-02T19:09:49.198Z,26.12
2018-07-02T19:12:19.791Z,25.96
2018-07-02T19:14:50.883Z,25.81
2018-07-02T19:17:21.736Z,25.60
2018-07-02T19:19:52.575Z,25.38
2018-07-02T19:22:23.244Z,25.20
2018-07-02T19:24:53.892Z,25.12
2018-07-02T19:27:43.749Z,25.00
2018-07-02T19:30:15.604Z,24.88
2018-07-02T19:32:46.756Z,24.82
2018-07-02T19:35:17.636Z,24.70
2018-07-02T19:37:48.576Z,24.63
2018-07-02T19:40:19.653Z,24.60
2018-07-02T19:42:50.294Z,24.53
2018-07-02T19:45:21.676Z,24.45
2018-07-02T19:47:53.958Z,24.39
2018-07-02T19:50:25.662Z,24.27
2018-07-02T19:52:56.683Z,24.14
2018-07-02T19:55:27.722Z,24.07
2018-07-02T19:57:58.736Z,23.98
2018-07-02T20:00:33.730Z,23.90
2018-07-02T20:03:04.465Z,23.81
2018-07-02T20:05:35.775Z,23.72
2018-07-02T20:08:06.791Z,23.59
2018-07-02T20:10:37.823Z,23.38
2018-07-02T20:13:09.439Z,23.27
2018-07-02T20:15:40.355Z,23.12
2018-07-02T20:18:16.848Z,22.97
2018-07-02T20:20:47.881Z,22.78
2018-07-02T20:23:19.377Z,22.71
2018-07-02T20:25:50.399Z,22.70
2018-07-02T20:28:21.520Z,22.76
2018-07-02T20:30:52.662Z,22.76
2018-07-02T20:33:23.029Z,22.75
2018-07-02T20:35:53.914Z,22.74
2018-07-02T20:38:24.674Z,22.67
2018-07-02T20:41:08.072Z,22.63
2018-07-02T20:43:38.916Z,22.55
2018-07-02T20:46:09.701Z,22.46
2018-07-02T20:48:40.971Z,22.40
2018-07-02T20:51:35.987Z,22.35
2018-07-02T20:54:06.956Z,22.24
2018-07-02T20:56:37.679Z,22.15
2018-07-02T20:59:08.652Z,22.05
2018-07-02T21:01:40.001Z,21.96
2018-07-02T21:04:10.332Z,21.84
2018-07-02T21:06:50.751Z,21.78
2018-07-02T21:09:21.580Z,21.72
2018-07-02T21:11:51.851Z,21.67
2018-07-02T21:14:22.334Z,21.59
2018-07-02T21:16:56.294Z,21.54
2018-07-02T21:19:27.778Z,21.54
2018-07-02T21:21:59.136Z,21.48
2018-07-02T21:24:30.151Z,21.46
2018-07-02T21:27:01.344Z,21.43
2018-07-02T21:29:32.324Z,21.38
2018-07-02T21:32:03.311Z,21.37
2018-07-02T21:34:33.863Z,21.32
2018-07-02T21:37:04.832Z,21.34
2018-07-02T21:39:36.281Z,21.39
2018-07-02T21:42:07.422Z,21.37
2018-07-02T21:44:38.798Z,21.32
2018-07-02T21:47:10.272Z,21.29
2018-07-02T21:49:40.980Z,21.27
2018-07-02T21:52:11.974Z,21.21
2018-07-02T21:54:42.775Z,21.14
2018-07-02T21:57:13.612Z,21.06
2018-07-02T21:59:44.827Z,20.97
2018-07-02T22:02:15.644Z,20.91
2018-07-02T22:04:46.951Z,20.87
2018-07-02T22:07:18.040Z,20.78
2018-07-02T22:09:48.979Z,20.66
2018-07-02T22:12:19.643Z,20.54
2018-07-02T22:14:50.866Z,20.54
2018-07-02T22:17:21.987Z,20.55
2018-07-02T22:19:52.958Z,20.49
2018-07-02T22:22:23.901Z,20.35
2018-07-02T22:24:54.924Z,20.24
2018-07-02T22:27:25.943Z,20.20
2018-07-02T22:29:57.215Z,20.15
2018-07-02T22:32:28.507Z,20.05
2018-07-02T22:34:59.271Z,19.91
2018-07-02T22:37:30.227Z,19.86
2018-07-02T22:40:01.545Z,19.82
2018-07-02T22:42:32.570Z,19.82
2018-07-02T22:45:03.551Z,19.78
2018-07-02T22:47:35.273Z,19.74
2018-07-02T22:50:06.284Z,19.70
2018-07-02T22:52:36.747Z,19.73
2018-07-02T22:55:07.200Z,19.68
2018-07-02T22:57:37.596Z,19.64
2018-07-02T23:00:08.549Z,19.59
2018-07-02T23:02:39.033Z,19.59
2018-07-02T23:05:09.534Z,19.53
2018-07-02T23:07:39.648Z,19.50
2018-07-02T23:10:09.989Z,19.50
2018-07-02T23:12:41.902Z,19.57
2018-07-02T23:15:13.008Z,19.51
2018-07-02T23:17:44.296Z,19.38
2018-07-02T23:20:15.040Z,19.27
2018-07-02T23:23:00.449Z,19.22
2018-07-02T23:25:31.758Z,19.21
2018-07-02T23:28:03.131Z,19.16
2018-07-02T23:30:37.401Z,19.10
2018-07-02T23:33:08.093Z,19.08
2018-07-02T23:35:38.970Z,19.03
2018-07-02T23:38:09.358Z,18.99
2018-07-02T23:40:40.095Z,18.95
2018-07-02T23:43:11.033Z,18.94
2018-07-02T23:45:41.958Z,18.95
2018-07-02T23:48:12.874Z,18.95
2018-07-02T23:50:43.499Z,18.97
2018-07-02T23:53:14.639Z,18.95
2018-07-02T23:55:45.232Z,18.94
2018-07-02T23:58:16.415Z,18.93
